Time;durP1;ratioP1;P1;durP2;ratioP2;P2;SDS_P1;SDS_P2;PMS_P1;PMS_P2;Temp;Humidity;BMP_temperature;BMP_pressure;BME280_temperature;BME280_humidity;BME280_pressure;Samples;Min_cycle;Max_cycle;Signal;HPM_P1;HPM_P2
2023/05/01 00:01:21;;;;;;;2.77;1.10;;;19.70;61.60;;;;;;5057665;28;20895;-48
2023/05/01 00:03:50;;;;;;;1.67;0.57;;;19.70;61.60;;;;;;5052990;28;20211;-49
2023/05/01 00:06:21;;;;;;;0.97;0.87;;;19.70;61.60;;;;;;5051195;28;20618;-49
2023/05/01 00:08:49;;;;;;;1.07;0.80;;;19.70;61.60;;;;;;5034043;28;20190;-49
2023/05/01 00:11:17;;;;;;;1.30;0.80;;;19.60;61.80;;;;;;5051824;28;20206;-49
2023/05/01 00:13:47;;;;;;;0.93;0.80;;;19.70;61.60;;;;;;5046443;28;20198;-48
2023/05/01 00:16:18;;;;;;;0.70;0.50;;;19.60;62.20;;;;;;5066867;28;20272;-48
2023/05/01 00:18:51;;;;;;;0.50;0.50;;;19.60;61.60;;;;;;5052059;28;20565;-47
2023/05/01 00:21:23;;;;;;;0.93;0.80;;;19.60;61.60;;;;;;5051685;28;20533;-47
2023/05/01 00:23:55;;;;;;;0.97;0.77;;;19.60;61.60;;;;;;5045739;28;20202;-47
2023/05/01 00:26:29;;;;;;;1.13;0.67;;;19.60;61.60;;;;;;5048834;28;20221;-47
2023/05/01 00:29:02;;;;;;;0.70;0.70;;;19.60;61.60;;;;;;5050363;28;20271;-47
2023/05/01 00:31:34;;;;;;;0.90;0.60;;;19.60;61.70;;;;;;5050598;28;20194;-48
2023/05/01 00:34:05;;;;;;;1.03;0.80;;;19.60;61.60;;;;;;5052925;28;20204;-48
2023/05/01 00:36:35;;;;;;;0.93;0.70;;;19.60;61.60;;;;;;5038137;28;20685;-48
2023/05/01 00:39:07;;;;;;;0.70;0.60;;;19.60;61.70;;;;;;5049160;28;20214;-48
2023/05/01 00:41:39;;;;;;;0.83;0.63;;;19.60;61.60;;;;;;5051345;28;20236;-47
2023/05/01 00:44:07;;;;;;;0.70;0.70;;;19.60;62.30;;;;;;5031833;28;20226;-47
2023/05/01 00:46:39;;;;;;;0.93;0.80;;;19.50;61.60;;;;;;5033638;28;20210;-47
2023/05/01 00:49:14;;;;;;;1.00;0.90;;;19.60;61.70;;;;;;5051141;28;20193;-47
2023/05/01 00:51:48;;;;;;;0.60;0.60;;;19.50;61.60;;;;;;5032883;28;20218;-47
2023/05/01 00:54:21;;;;;;;0.80;0.60;;;19.50;61.60;;;;;;5024130;28;20197;-47
2023/05/01 00:56:53;;;;;;;1.13;0.63;;;19.50;61.60;;;;;;5025547;28;20279;-47
2023/05/01 00:59:23;;;;;;;2.30;0.77;;;19.50;61.70;;;;;;5005479;28;20190;-47
2023/05/01 01:01:57;;;;;;;0.70;0.70;;;19.50;61.60;;;;;;5045559;28;20226;-47
2023/05/01 01:04:32;;;;;;;1.57;0.67;;;19.50;61.60;;;;;;5050289;28;20224;-47
2023/05/01 01:07:21;;;;;;;0.80;0.70;;;19.50;61.50;;;;;;5050636;28;20217;-47
2023/05/01 01:10:14;;;;;;;0.70;0.70;;;19.50;61.50;;;;;;5033170;28;20197;-46
2023/05/01 01:13:19;;;;;;;1.40;0.70;;;19.50;61.60;;;;;;5042452;28;20577;-49
2023/05/01 01:15:57;;;;;;;0.80;0.80;;;19.50;61.50;;;;;;5045253;28;20237;-48
2023/05/01 01:18:54;;;;;;;0.80;0.70;;;19.50;61.60;;;;;;5047288;28;20716;-49
2023/05/01 01:21:46;;;;;;;1.33;0.87;;;19.50;61.60;;;;;;5049932;28;20566;-49
2023/05/01 01:24:57;;;;;;;2.07;0.80;;;19.50;61.60;;;;;;5049951;28;20564;-49
2023/05/01 01:28:13;;;;;;;0.73;0.60;;;19.40;61.60;;;;;;4938876;28;20209;-49
2023/05/01 01:30:45;;;;;;;1.10;0.70;;;19.50;62.20;;;;;;5042205;28;20643;-49
2023/05/01 01:33:56;;;;;;;1.13;0.83;;;19.40;62.20;;;;;;5042970;28;20222;-48
2023/05/01 01:37:06;;;;;;;0.80;0.70;;;19.40;61.60;;;;;;5050402;28;20206;-47
2023/05/01 01:39:47;;;;;;;0.97;0.80;;;19.40;61.60;;;;;;5040515;28;20279;-48
2023/05/01 01:42:26;;;;;;;1.33;1.23;;;19.40;61.60;;;;;;5049570;28;20335;-49
2023/05/01 01:45:49;;;;;;;0.60;0.50;;;19.40;61.60;;;;;;5033839;28;20258;-46
2023/05/01 01:48:26;;;;;;;0.77;0.70;;;19.40;61.60;;;;;;4946203;29;20523;-49
2023/05/01 01:51:01;;;;;;;0.80;0.80;;;19.40;61.60;;;;;;5022448;28;20260;-48
2023/05/01 01:53:36;;;;;;;1.07;0.90;;;19.40;61.60;;;;;;5036537;28;20264;-49
2023/05/01 01:56:16;;;;;;;0.70;0.70;;;19.40;61.50;;;;;;5048622;28;20423;-49
2023/05/01 01:58:52;;;;;;;0.60;0.50;;;19.40;61.60;;;;;;5033170;28;20202;-49
2023/05/01 02:01:36;;;;;;;0.77;0.77;;;19.40;61.60;;;;;;5031257;28;20202;-49
2023/05/01 02:04:10;;;;;;;1.37;0.90;;;19.40;61.40;;;;;;5052843;28;20205;-49
2023/05/01 02:07:03;;;;;;;1.10;0.87;;;19.40;61.50;;;;;;5032586;28;20596;-49
2023/05/01 02:09:37;;;;;;;1.20;0.87;;;19.40;61.50;;;;;;5049117;28;20207;-49
2023/05/01 02:12:07;;;;;;;1.00;0.80;;;19.40;61.60;;;;;;5046984;28;20193;-49
2023/05/01 02:14:38;;;;;;;0.80;0.80;;;19.40;61.50;;;;;;5017376;28;20210;-49
2023/05/01 02:17:10;;;;;;;1.10;0.73;;;19.40;61.50;;;;;;5031369;28;20268;-49
2023/05/01 02:19:39;;;;;;;0.97;0.87;;;19.40;61.50;;;;;;5048889;28;20274;-47
2023/05/01 02:22:11;;;;;;;1.23;0.70;;;19.40;61.50;;;;;;5043729;28;20207;-48
2023/05/01 02:24:47;;;;;;;0.73;0.70;;;19.40;61.50;;;;;;5032083;28;20205;-49
2023/05/01 02:27:55;;;;;;;1.37;0.87;;;19.40;61.50;;;;;;5030324;28;20561;-49
2023/05/01 02:30:26;;;;;;;1.57;0.90;;;19.40;61.40;;;;;;5034133;28;20210;-47
2023/05/01 02:32:58;;;;;;;1.23;0.60;;;19.40;61.50;;;;;;5031670;28;20194;-47
2023/05/01 02:35:48;;;;;;;0.93;0.80;;;19.30;61.40;;;;;;5046963;28;20614;-47
2023/05/01 02:38:26;;;;;;;1.30;0.63;;;19.40;61.40;;;;;;5047000;28;20253;-49
2023/05/01 02:40:59;;;;;;;1.63;0.93;;;19.40;61.50;;;;;;5049315;28;20758;-47
2023/05/01 02:43:35;;;;;;;1.10;1.00;;;19.30;61.40;;;;;;5052990;28;20240;-48
2023/05/01 02:46:09;;;;;;;1.13;0.87;;;19.40;61.50;;;;;;5050389;28;20201;-49
2023/05/01 02:48:45;;;;;;;0.87;0.80;;;19.40;61.40;;;;;;5040002;28;20228;-49
2023/05/01 02:51:13;;;;;;;0.73;0.73;;;19.30;61.40;;;;;;5032805;28;20228;-48
2023/05/01 02:53:42;;;;;;;1.10;0.77;;;19.30;61.40;;;;;;5050309;28;20190;-48
2023/05/01 02:56:13;;;;;;;1.20;0.80;;;19.30;61.40;;;;;;5050636;28;20677;-49
2023/05/01 02:58:46;;;;;;;1.23;0.70;;;19.30;61.40;;;;;;5048338;28;20618;-49
2023/05/01 03:01:14;;;;;;;1.37;0.80;;;19.30;61.40;;;;;;5049845;28;20197;-48
2023/05/01 03:03:45;;;;;;;2.33;1.20;;;19.30;61.50;;;;;;5063246;28;20193;-48
2023/05/01 03:06:14;;;;;;;0.90;0.63;;;19.30;61.40;;;;;;5068433;28;20202;-48
2023/05/01 03:08:41;;;;;;;1.00;0.90;;;19.30;61.40;;;;;;5070782;28;20197;-48
2023/05/01 03:11:14;;;;;;;2.93;1.30;;;19.30;61.40;;;;;;5073615;28;20194;-49
2023/05/01 03:13:45;;;;;;;1.10;1.00;;;19.30;62.00;;;;;;5083327;28;20200;-48
2023/05/01 03:16:15;;;;;;;0.70;0.70;;;19.30;61.40;;;;;;5073155;28;20255;-48
2023/05/01 03:18:45;;;;;;;1.37;0.70;;;19.30;61.40;;;;;;5065477;28;20225;-48
2023/05/01 03:21:16;;;;;;;0.87;0.87;;;19.30;61.40;;;;;;5074931;28;20198;-48
2023/05/01 03:23:48;;;;;;;1.20;1.10;;;19.30;61.40;;;;;;5064792;28;20198;-48
2023/05/01 03:26:18;;;;;;;0.80;0.80;;;19.20;61.40;;;;;;5072518;28;20210;-48
2023/05/01 03:28:48;;;;;;;0.80;0.80;;;19.30;61.40;;;;;;5073847;28;20202;-49
2023/05/01 03:31:21;;;;;;;1.83;1.20;;;19.30;61.40;;;;;;5073885;28;20194;-48
2023/05/01 03:33:51;;;;;;;1.10;1.00;;;19.30;61.40;;;;;;5070078;28;20193;-48
2023/05/01 03:36:21;;;;;;;1.00;0.80;;;19.30;61.40;;;;;;5075162;28;20194;-48
2023/05/01 03:38:51;;;;;;;0.97;0.87;;;19.20;61.40;;;;;;5071767;28;20710;-49
2023/05/01 03:41:20;;;;;;;1.37;1.03;;;19.20;61.40;;;;;;5072231;28;20228;-48
2023/05/01 03:43:51;;;;;;;1.10;1.00;;;19.20;61.40;;;;;;5070990;28;20237;-48
2023/05/01 03:46:30;;;;;;;1.20;1.10;;;19.20;61.40;;;;;;5073812;28;20284;-48
2023/05/01 03:49:00;;;;;;;1.30;1.00;;;19.20;61.40;;;;;;5073697;28;20182;-48
2023/05/01 03:51:30;;;;;;;0.90;0.90;;;19.20;61.40;;;;;;5068770;28;20646;-48
2023/05/01 03:54:02;;;;;;;1.10;0.90;;;19.20;61.40;;;;;;5065659;28;20205;-48
2023/05/01 03:56:35;;;;;;;1.13;1.03;;;19.20;61.40;;;;;;5076562;28;20189;-47
2023/05/01 03:59:04;;;;;;;1.67;1.00;;;19.20;61.40;;;;;;5075288;28;20225;-47
2023/05/01 04:01:33;;;;;;;1.30;1.00;;;19.20;61.40;;;;;;5086393;28;20537;-48
2023/05/01 04:04:02;;;;;;;1.20;1.10;;;19.20;61.40;;;;;;5067943;28;20238;-48
2023/05/01 04:06:35;;;;;;;1.20;0.93;;;19.20;61.40;;;;;;5075798;28;20190;-48
2023/05/01 04:09:03;;;;;;;1.27;0.90;;;19.20;61.40;;;;;;5075883;28;20529;-49
2023/05/01 04:11:33;;;;;;;1.27;0.90;;;19.20;61.40;;;;;;5073118;28;20197;-48
2023/05/01 04:14:04;;;;;;;1.03;0.93;;;19.20;61.40;;;;;;5067117;28;20239;-48
2023/05/01 04:16:34;;;;;;;2.03;1.20;;;19.20;61.40;;;;;;5064432;28;20210;-49
2023/05/01 04:19:05;;;;;;;0.90;0.90;;;19.20;61.40;;;;;;5073501;28;20635;-49
2023/05/01 04:21:36;;;;;;;1.40;1.07;;;19.20;61.40;;;;;;5074155;28;20194;-48
2023/05/01 04:24:08;;;;;;;1.53;1.00;;;19.20;61.40;;;;;;5071036;28;20272;-49
2023/05/01 04:26:38;;;;;;;1.00;0.90;;;19.20;61.40;;;;;;5068487;28;20198;-49
2023/05/01 04:29:06;;;;;;;1.53;1.03;;;19.20;61.40;;;;;;5071974;28;20495;-48
2023/05/01 04:31:34;;;;;;;1.40;1.10;;;19.20;61.40;;;;;;5071914;28;20201;-47
2023/05/01 04:34:05;;;;;;;1.70;1.17;;;19.20;61.40;;;;;;5069100;28;20543;-47
2023/05/01 04:36:47;;;;;;;2.93;1.07;;;19.20;61.40;;;;;;5075370;28;20201;-47
2023/05/01 04:39:21;;;;;;;1.27;1.10;;;19.20;61.40;;;;;;5078994;28;20880;-47
2023/05/01 04:41:49;;;;;;;1.40;1.17;;;19.10;61.40;;;;;;5088252;28;20197;-47
2023/05/01 04:44:17;;;;;;;2.73;1.03;;;19.20;61.40;;;;;;5077225;28;20235;-47
2023/05/01 04:46:49;;;;;;;2.07;0.90;;;19.10;61.40;;;;;;5091269;28;20193;-48
2023/05/01 04:49:18;;;;;;;1.20;1.00;;;19.20;61.40;;;;;;5072661;28;20323;-47
2023/05/01 04:52:02;;;;;;;1.43;1.07;;;19.10;61.30;;;;;;5070560;28;20706;-46
2023/05/01 04:54:34;;;;;;;1.30;1.00;;;19.10;61.30;;;;;;5085361;28;20205;-47
2023/05/01 04:57:05;;;;;;;2.80;1.20;;;19.20;61.40;;;;;;5065137;28;20190;-46
2023/05/01 04:59:32;;;;;;;1.70;1.07;;;19.10;61.30;;;;;;5079720;28;20591;-47
2023/05/01 05:02:02;;;;;;;2.97;1.30;;;19.10;61.20;;;;;;5069403;28;20205;-48
2023/05/01 05:04:35;;;;;;;2.50;1.23;;;19.10;61.20;;;;;;5073685;28;20200;-49
2023/05/01 05:07:03;;;;;;;1.30;0.93;;;19.10;61.20;;;;;;5085698;28;20655;-48
2023/05/01 05:09:38;;;;;;;2.47;1.50;;;19.10;61.10;;;;;;5084273;28;20232;-48
2023/05/01 05:12:06;;;;;;;1.30;1.03;;;19.10;61.10;;;;;;5067970;28;20207;-48
2023/05/01 05:14:36;;;;;;;1.33;1.17;;;19.10;61.10;;;;;;5089579;28;20225;-49
2023/05/01 05:17:07;;;;;;;1.23;1.13;;;19.10;61.10;;;;;;5080963;28;20200;-49
2023/05/01 05:19:37;;;;;;;1.30;1.20;;;19.10;61.00;;;;;;5062251;28;20190;-48
2023/05/01 05:22:07;;;;;;;1.67;1.00;;;19.10;61.00;;;;;;5079724;28;20231;-48
2023/05/01 05:24:36;;;;;;;1.77;1.40;;;19.10;61.00;;;;;;5078224;28;20194;-49
2023/05/01 05:27:06;;;;;;;1.37;1.27;;;19.10;60.90;;;;;;5066949;28;20625;-49
2023/05/01 05:29:49;;;;;;;1.33;1.20;;;19.10;60.90;;;;;;5076899;28;20255;-47
2023/05/01 05:32:21;;;;;;;1.43;1.20;;;19.10;60.90;;;;;;5076119;28;20199;-47
2023/05/01 05:34:52;;;;;;;1.70;1.20;;;19.10;60.90;;;;;;5077990;28;20197;-46
2023/05/01 05:37:24;;;;;;;1.37;1.17;;;19.10;60.90;;;;;;5074557;28;20201;-48
2023/05/01 05:39:56;;;;;;;1.40;1.30;;;19.10;60.80;;;;;;5084842;28;20205;-49
2023/05/01 05:42:30;;;;;;;1.40;1.23;;;19.10;60.80;;;;;;5080447;28;20217;-49
2023/05/01 05:44:58;;;;;;;1.70;1.50;;;19.10;60.80;;;;;;5086443;28;21413;-48
2023/05/01 05:47:32;;;;;;;1.83;1.70;;;19.10;60.80;;;;;;5078232;28;20201;-48
2023/05/01 05:50:00;;;;;;;2.97;1.37;;;19.10;60.90;;;;;;5051835;28;20196;-48
2023/05/01 05:52:32;;;;;;;2.77;1.37;;;19.10;60.80;;;;;;5075943;28;20520;-47
2023/05/01 05:55:03;;;;;;;1.80;1.60;;;19.10;60.80;;;;;;5062159;28;20243;-48
2023/05/01 05:57:38;;;;;;;2.97;1.70;;;19.10;61.00;;;;;;5083361;28;20197;-47
2023/05/01 06:00:23;;;;;;;3.03;1.70;;;19.10;61.20;;;;;;5065845;28;20212;-47
2023/05/01 06:02:51;;;;;;;3.03;1.83;;;19.10;61.50;;;;;;5070253;28;20216;-47
2023/05/01 06:05:23;;;;;;;7.40;1.90;;;19.10;61.40;;;;;;5073651;28;20192;-47
2023/05/01 06:07:53;;;;;;;12.37;2.20;;;19.10;61.30;;;;;;5074644;28;20189;-47
2023/05/01 06:10:25;;;;;;;6.13;1.73;;;19.10;61.50;;;;;;5073473;28;20216;-47
2023/05/01 06:12:55;;;;;;;5.70;1.70;;;19.10;61.40;;;;;;5070002;28;20220;-47
2023/05/01 06:15:42;;;;;;;6.23;1.90;;;19.10;61.30;;;;;;5058258;28;20278;-47
2023/05/01 06:18:10;;;;;;;6.43;1.77;;;19.10;61.30;;;;;;5070292;28;20229;-47
2023/05/01 06:20:41;;;;;;;5.73;1.60;;;19.10;61.20;;;;;;5037392;28;20243;-47
2023/05/01 06:23:12;;;;;;;4.47;1.87;;;19.10;61.20;;;;;;5068750;28;20233;-47
2023/05/01 06:25:43;;;;;;;3.13;1.77;;;19.10;61.10;;;;;;5077471;28;20512;-49
2023/05/01 06:28:16;;;;;;;4.13;2.10;;;19.10;61.10;;;;;;5078985;28;20196;-48
2023/05/01 06:30:48;;;;;;;8.10;2.07;;;19.10;61.00;;;;;;5069520;28;20194;-48
2023/05/01 06:33:17;;;;;;;9.40;2.10;;;19.10;61.20;;;;;;5055004;28;20198;-48
2023/05/01 06:35:48;;;;;;;10.17;2.37;;;19.20;61.30;;;;;;5063507;28;20201;-46
2023/05/01 06:38:15;;;;;;;13.37;1.80;;;19.30;61.40;;;;;;5067917;28;20675;-47
2023/05/01 06:40:51;;;;;;;3.17;1.90;;;19.30;61.80;;;;;;5085330;28;20193;-47
2023/05/01 06:43:26;;;;;;;4.87;2.30;;;19.40;61.30;;;;;;5062491;28;20188;-49
2023/05/01 06:45:55;;;;;;;3.83;2.30;;;19.50;61.10;;;;;;5080253;28;20239;-47
2023/05/01 06:48:26;;;;;;;5.37;2.27;;;19.50;61.30;;;;;;5085328;28;20617;-47
2023/05/01 06:50:57;;;;;;;6.33;1.80;;;19.60;61.20;;;;;;5087806;28;20212;-47
2023/05/01 06:53:27;;;;;;;3.73;1.50;;;19.70;61.10;;;;;;5084215;28;20259;-47
2023/05/01 06:55:57;;;;;;;5.33;2.00;;;19.70;60.90;;;;;;5082825;28;20571;-47
2023/05/01 06:58:29;;;;;;;5.53;1.63;;;19.80;60.90;;;;;;5068045;28;20228;-46
2023/05/01 07:00:58;;;;;;;10.63;2.73;;;19.90;61.00;;;;;;5080441;28;20634;-47
2023/05/01 07:03:30;;;;;;;3.23;1.97;;;20.00;59.20;;;;;;5082469;28;20200;-46
2023/05/01 07:06:06;;;;;;;6.53;2.30;;;19.90;59.10;;;;;;5077965;28;20220;-47
2023/05/01 07:08:40;;;;;;;5.47;2.20;;;20.00;59.00;;;;;;5083748;28;20189;-46
2023/05/01 07:11:11;;;;;;;3.63;2.10;;;20.00;58.80;;;;;;5075194;28;20220;-47
2023/05/01 07:13:43;;;;;;;4.33;2.57;;;20.00;58.70;;;;;;5068784;28;20220;-46
2023/05/01 07:16:11;;;;;;;8.87;2.40;;;20.00;58.80;;;;;;5066054;28;20452;-47
2023/05/01 07:18:39;;;;;;;7.07;2.80;;;20.10;58.60;;;;;;5077755;28;20523;-47
2023/05/01 07:21:10;;;;;;;8.43;2.70;;;20.10;58.50;;;;;;5077161;28;20198;-47
2023/05/01 07:23:38;;;;;;;5.27;3.00;;;20.10;58.70;;;;;;5071976;28;20214;-47
2023/05/01 07:26:09;;;;;;;6.63;2.90;;;20.10;58.60;;;;;;5075751;28;20595;-47
2023/05/01 07:28:40;;;;;;;4.03;2.37;;;20.20;58.90;;;;;;5074902;28;20194;-47
2023/05/01 07:31:12;;;;;;;7.53;3.23;;;20.20;58.80;;;;;;5081200;28;20197;-47
2023/05/01 07:33:43;;;;;;;9.27;4.33;;;20.20;58.80;;;;;;5082598;28;20198;-47
2023/05/01 07:36:15;;;;;;;16.27;5.40;;;20.30;59.50;;;;;;5060215;28;20726;-47
2023/05/01 07:38:44;;;;;;;11.07;4.53;;;20.30;60.40;;;;;;5084670;28;20237;-47
2023/05/01 07:41:17;;;;;;;11.87;4.70;;;20.30;60.20;;;;;;5072771;28;20200;-47
2023/05/01 07:43:47;;;;;;;15.27;4.83;;;20.40;60.70;;;;;;5072548;28;20220;-47
2023/05/01 07:46:14;;;;;;;11.37;4.60;;;20.40;60.70;;;;;;5078090;28;20674;-46
2023/05/01 07:48:56;;;;;;;9.33;4.27;;;20.50;60.50;;;;;;5057920;28;20276;-47
2023/05/01 07:51:28;;;;;;;9.43;4.97;;;20.50;60.60;;;;;;5075904;28;20639;-45
2023/05/01 07:54:04;;;;;;;8.53;4.70;;;20.50;60.50;;;;;;5063632;28;20223;-46
2023/05/01 07:56:33;;;;;;;8.20;4.00;;;20.60;60.40;;;;;;5075769;28;20236;-47
2023/05/01 07:59:04;;;;;;;10.00;4.03;;;20.60;59.90;;;;;;5091100;28;20220;-47
2023/05/01 08:01:37;;;;;;;10.33;4.37;;;20.60;60.10;;;;;;5080431;28;20666;-46
2023/05/01 08:04:05;;;;;;;9.03;4.20;;;20.70;60.00;;;;;;5059951;28;20189;-46
2023/05/01 08:06:38;;;;;;;8.10;4.00;;;20.80;60.20;;;;;;5081500;28;20204;-46
2023/05/01 08:09:10;;;;;;;9.23;3.83;;;20.80;60.00;;;;;;5077477;28;20967;-46
2023/05/01 08:11:41;;;;;;;7.40;3.77;;;20.80;60.10;;;;;;5057740;28;20198;-46
2023/05/01 08:14:12;;;;;;;7.40;3.57;;;20.90;59.90;;;;;;5081834;28;20213;-46
2023/05/01 08:16:44;;;;;;;8.30;3.83;;;20.90;59.80;;;;;;5071725;28;20201;-46
2023/05/01 08:19:14;;;;;;;8.30;3.73;;;21.00;59.60;;;;;;5076682;28;20217;-46
2023/05/01 08:21:46;;;;;;;8.50;3.40;;;21.00;59.80;;;;;;5070416;28;20197;-47
2023/05/01 08:24:16;;;;;;;8.23;3.63;;;21.10;59.60;;;;;;5071574;28;20190;-47
2023/05/01 08:26:47;;;;;;;5.83;3.60;;;21.10;59.40;;;;;;5068350;28;20209;-47
2023/05/01 08:29:16;;;;;;;6.60;3.53;;;21.10;59.60;;;;;;5076298;28;20189;-47
2023/05/01 08:31:47;;;;;;;6.70;3.00;;;21.10;59.60;;;;;;5072521;28;20246;-47
2023/05/01 08:34:19;;;;;;;6.27;3.50;;;21.20;59.40;;;;;;5080591;28;20202;-48
2023/05/01 08:36:49;;;;;;;5.37;3.30;;;21.30;59.80;;;;;;5087431;28;20645;-46
2023/05/01 08:39:21;;;;;;;5.93;3.60;;;21.30;59.40;;;;;;5066863;28;20546;-46
2023/05/01 08:41:51;;;;;;;8.20;3.07;;;21.30;59.50;;;;;;5075059;28;20743;-47
2023/05/01 08:44:29;;;;;;;6.43;2.93;;;21.40;59.40;;;;;;5057371;28;20254;-48
2023/05/01 08:47:14;;;;;;;8.13;3.40;;;21.50;59.50;;;;;;5094358;28;20193;-46
2023/05/01 08:49:51;;;;;;;4.43;2.90;;;21.50;59.50;;;;;;5099748;28;20184;-46
2023/05/01 08:52:27;;;;;;;4.87;2.93;;;21.50;59.20;;;;;;5098017;28;20619;-47
2023/05/01 08:55:00;;;;;;;4.97;3.00;;;21.60;59.10;;;;;;5082242;28;20211;-47
2023/05/01 08:57:43;;;;;;;6.63;2.83;;;21.60;59.10;;;;;;5074313;28;20272;-46
2023/05/01 09:00:23;;;;;;;4.13;2.80;;;21.60;58.80;;;;;;5074393;28;20236;-47
2023/05/01 09:02:57;;;;;;;5.20;2.70;;;21.60;58.80;;;;;;5067090;28;20626;-46
2023/05/01 09:05:33;;;;;;;7.93;3.10;;;21.60;58.80;;;;;;5083665;28;20606;-46
2023/05/01 09:08:06;;;;;;;5.77;2.97;;;21.70;59.10;;;;;;5092962;28;20200;-47
2023/05/01 09:10:44;;;;;;;5.67;3.00;;;21.60;59.50;;;;;;5098824;28;20227;-47
2023/05/01 09:13:13;;;;;;;6.23;2.90;;;21.70;59.90;;;;;;5093383;28;20204;-47
2023/05/01 09:15:44;;;;;;;6.37;3.00;;;21.70;59.90;;;;;;5090003;28;20216;-47
2023/05/01 09:18:14;;;;;;;5.03;2.80;;;21.70;59.10;;;;;;5084506;28;20201;-47
2023/05/01 09:20:43;;;;;;;6.00;2.90;;;21.70;58.60;;;;;;5097386;28;20208;-47
2023/05/01 09:23:13;;;;;;;6.00;2.80;;;21.60;58.50;;;;;;5101236;28;20204;-47
2023/05/01 09:25:49;;;;;;;4.80;2.87;;;21.60;58.40;;;;;;5088016;28;20197;-47
2023/05/01 09:28:46;;;;;;;6.17;2.50;;;21.50;58.50;;;;;;5090638;28;20633;-48
2023/05/01 09:31:28;;;;;;;4.70;3.10;;;21.50;58.50;;;;;;5080912;28;20200;-46
2023/05/01 09:34:03;;;;;;;5.73;2.83;;;21.40;58.50;;;;;;5075081;28;20208;-46
2023/05/01 09:36:46;;;;;;;3.63;2.93;;;21.40;58.50;;;;;;5098100;28;20193;-48
2023/05/01 09:39:23;;;;;;;4.53;3.27;;;21.40;58.80;;;;;;5084859;28;20772;-48
2023/05/01 09:41:58;;;;;;;4.30;2.60;;;21.30;58.80;;;;;;5089152;28;20203;-47
2023/05/01 09:44:28;;;;;;;3.00;2.60;;;21.30;58.70;;;;;;5091466;28;20707;-47
2023/05/01 09:47:01;;;;;;;3.23;2.53;;;21.30;58.70;;;;;;5082678;28;20212;-47
2023/05/01 09:49:48;;;;;;;3.60;2.83;;;21.20;58.90;;;;;;5088937;28;20201;-47
2023/05/01 09:52:18;;;;;;;3.63;2.53;;;21.20;59.00;;;;;;5075753;28;20201;-47
2023/05/01 09:54:49;;;;;;;3.93;2.63;;;21.20;59.10;;;;;;5072170;28;20213;-47
2023/05/01 09:57:37;;;;;;;4.67;2.40;;;21.20;59.40;;;;;;5096506;28;20265;-47
2023/05/01 10:00:14;;;;;;;2.90;2.60;;;21.10;59.30;;;;;;5086792;28;20637;-47
2023/05/01 10:02:53;;;;;;;5.80;2.80;;;21.10;59.50;;;;;;5066494;28;20208;-47
2023/05/01 10:05:24;;;;;;;4.47;3.27;;;21.10;59.80;;;;;;5096389;28;20192;-46
2023/05/01 10:08:01;;;;;;;5.00;2.40;;;21.20;59.90;;;;;;5098131;28;20712;-46
2023/05/01 10:10:31;;;;;;;2.37;2.17;;;21.10;59.90;;;;;;5070310;28;20657;-47
2023/05/01 10:13:18;;;;;;;5.23;2.50;;;21.10;59.80;;;;;;5100540;28;20196;-47
2023/05/01 10:15:54;;;;;;;3.40;2.73;;;21.00;60.00;;;;;;5086197;28;20193;-47
2023/05/01 10:18:27;;;;;;;4.33;2.93;;;21.00;60.10;;;;;;5087832;28;20300;-48
2023/05/01 10:20:58;;;;;;;5.90;2.53;;;21.00;60.20;;;;;;5088965;28;20201;-46
2023/05/01 10:23:30;;;;;;;3.80;2.30;;;21.00;60.30;;;;;;5093890;28;20242;-46
2023/05/01 10:26:01;;;;;;;3.50;2.50;;;21.00;60.30;;;;;;5084288;28;20201;-48
2023/05/01 10:28:34;;;;;;;3.43;2.33;;;21.00;60.40;;;;;;5085097;28;20208;-48
2023/05/01 10:31:12;;;;;;;3.27;2.30;;;21.00;60.40;;;;;;5071001;28;20184;-46
2023/05/01 10:33:45;;;;;;;5.20;3.67;;;21.00;60.50;;;;;;5078374;28;20189;-46
2023/05/01 10:36:27;;;;;;;7.83;3.97;;;20.90;61.40;;;;;;5094293;28;20633;-47
2023/05/01 10:39:03;;;;;;;4.67;3.40;;;20.90;61.90;;;;;;5060542;28;20220;-47
2023/05/01 10:42:12;;;;;;;5.00;3.47;;;20.90;63.00;;;;;;5095069;28;20747;-48
2023/05/01 10:44:46;;;;;;;5.63;3.50;;;20.80;63.80;;;;;;5064315;28;20229;-48
2023/05/01 10:47:27;;;;;;;4.60;3.43;;;20.80;63.80;;;;;;5093400;28;20188;-47
2023/05/01 10:50:14;;;;;;;4.43;3.60;;;20.80;63.70;;;;;;5081572;28;20193;-47
2023/05/01 10:53:17;;;;;;;4.87;3.50;;;20.80;63.70;;;;;;5083186;28;20548;-48
2023/05/01 10:55:55;;;;;;;4.17;3.20;;;20.70;63.80;;;;;;5079682;28;20274;-46
2023/05/01 10:58:40;;;;;;;4.40;3.20;;;20.70;64.30;;;;;;5089381;28;20733;-46
2023/05/01 11:01:41;;;;;;;4.30;3.00;;;20.70;64.10;;;;;;5088952;28;20189;-46
2023/05/01 11:04:28;;;;;;;3.43;3.13;;;20.70;64.80;;;;;;5074426;28;20219;-46
2023/05/01 11:07:13;;;;;;;5.40;3.30;;;20.70;64.40;;;;;;5094031;28;20211;-45
2023/05/01 11:10:01;;;;;;;3.67;3.07;;;20.70;64.40;;;;;;5105518;28;20200;-45
2023/05/01 11:12:49;;;;;;;4.10;2.97;;;20.80;64.90;;;;;;5103080;28;20219;-46
2023/05/01 11:15:33;;;;;;;3.10;2.57;;;20.80;65.40;;;;;;5094708;28;20213;-46
2023/05/01 11:18:06;;;;;;;3.80;3.10;;;20.70;64.60;;;;;;5099785;28;20429;-45
2023/05/01 11:20:46;;;;;;;4.20;2.70;;;20.80;64.40;;;;;;5099728;28;20217;-45
2023/05/01 11:23:20;;;;;;;3.37;2.70;;;20.70;64.80;;;;;;5114380;28;20275;-46
2023/05/01 11:25:49;;;;;;;3.73;2.97;;;20.80;64.10;;;;;;5066463;28;20197;-46
2023/05/01 11:28:20;;;;;;;5.83;2.97;;;20.90;64.70;;;;;;5071146;28;20610;-46
2023/05/01 11:30:52;;;;;;;9.67;3.10;;;20.80;63.80;;;;;;5066012;28;20201;-45
2023/05/01 11:33:25;;;;;;;4.27;3.00;;;20.90;63.90;;;;;;5073070;28;20208;-45
2023/05/01 11:35:59;;;;;;;3.97;2.90;;;20.90;63.80;;;;;;5100247;28;20899;-44
2023/05/01 11:38:31;;;;;;;4.63;2.40;;;20.90;63.90;;;;;;5075038;28;20212;-45
2023/05/01 11:41:05;;;;;;;6.00;2.60;;;20.90;64.40;;;;;;5086023;28;20216;-45
2023/05/01 11:43:58;;;;;;;3.70;2.63;;;20.90;65.20;;;;;;5095653;28;20580;-46
2023/05/01 11:46:32;;;;;;;2.93;2.50;;;20.90;64.10;;;;;;5092105;28;20509;-45
2023/05/01 11:49:03;;;;;;;6.07;2.67;;;20.90;63.50;;;;;;5092760;28;20197;-46
2023/05/01 11:51:31;;;;;;;4.87;2.70;;;20.90;63.70;;;;;;5089307;28;20566;-44
2023/05/01 11:54:10;;;;;;;4.90;3.07;;;21.00;63.80;;;;;;5074832;28;20196;-46
2023/05/01 11:56:43;;;;;;;5.83;3.00;;;21.00;65.80;;;;;;5065121;28;20912;-46
2023/05/01 11:59:15;;;;;;;13.67;4.87;;;21.00;64.70;;;;;;5098773;28;20205;-45
2023/05/01 12:01:46;;;;;;;5.33;3.77;;;21.00;65.90;;;;;;5068677;28;20193;-45
2023/05/01 12:04:32;;;;;;;6.10;3.37;;;21.00;65.30;;;;;;5089708;28;20208;-45
2023/05/01 12:07:02;;;;;;;7.93;4.43;;;21.00;65.00;;;;;;5088977;28;20734;-46
2023/05/01 12:09:34;;;;;;;8.40;4.43;;;21.10;66.80;;;;;;5103668;28;20193;-46
2023/05/01 12:12:06;;;;;;;7.87;4.30;;;21.10;65.80;;;;;;5110517;28;20196;-46
2023/05/01 12:14:35;;;;;;;11.57;4.30;;;21.10;65.90;;;;;;5097785;28;20268;-45
2023/05/01 12:17:28;;;;;;;8.40;4.60;;;21.20;66.70;;;;;;5102540;28;20189;-45
2023/05/01 12:19:58;;;;;;;10.93;4.23;;;21.20;66.90;;;;;;5091457;28;20590;-45
2023/05/01 12:22:31;;;;;;;11.97;4.73;;;21.20;65.70;;;;;;5077349;28;20189;-45
2023/05/01 12:25:04;;;;;;;10.03;4.93;;;21.20;66.10;;;;;;5087812;28;20197;-45
2023/05/01 12:27:45;;;;;;;6.97;4.50;;;21.20;66.40;;;;;;5087576;28;20628;-46
2023/05/01 12:30:24;;;;;;;9.70;4.47;;;21.20;66.60;;;;;;5104584;28;20257;-45
2023/05/01 12:32:56;;;;;;;9.33;5.27;;;21.30;66.50;;;;;;5081047;28;20557;-45
2023/05/01 12:35:30;;;;;;;8.73;4.40;;;21.20;67.40;;;;;;5098824;28;20191;-45
2023/05/01 12:38:08;;;;;;;15.47;5.00;;;21.30;66.30;;;;;;5094102;28;20424;-46
2023/05/01 12:40:57;;;;;;;9.90;5.33;;;21.30;66.90;;;;;;5066770;28;20232;-45
2023/05/01 12:43:32;;;;;;;5.97;4.10;;;21.30;67.20;;;;;;5090198;28;20201;-45
2023/05/01 12:46:03;;;;;;;10.63;4.40;;;21.30;66.00;;;;;;5097109;28;20570;-46
2023/05/01 12:48:39;;;;;;;8.90;4.57;;;21.30;66.20;;;;;;5073635;28;20618;-47
2023/05/01 12:51:20;;;;;;;13.43;5.00;;;21.40;67.50;;;;;;5093834;28;20517;-46
2023/05/01 12:53:57;;;;;;;10.23;5.07;;;21.40;66.50;;;;;;5081606;28;20191;-44
2023/05/01 12:56:29;;;;;;;10.00;5.03;;;21.40;66.70;;;;;;5107155;28;20197;-46
2023/05/01 12:58:59;;;;;;;7.23;4.83;;;21.40;67.20;;;;;;5091193;28;20201;-46
2023/05/01 13:01:28;;;;;;;9.80;4.93;;;21.50;66.00;;;;;;5070443;28;20234;-46
2023/05/01 13:03:57;;;;;;;8.57;4.77;;;21.50;66.30;;;;;;5065234;28;20212;-47
2023/05/01 13:06:35;;;;;;;10.67;5.37;;;21.50;66.20;;;;;;5091211;28;20211;-46
2023/05/01 13:09:14;;;;;;;10.20;5.10;;;21.50;66.00;;;;;;5092841;28;20498;-45
2023/05/01 13:11:56;;;;;;;7.67;4.60;;;21.50;66.00;;;;;;5079410;28;20224;-45
2023/05/01 13:14:42;;;;;;;7.57;4.10;;;21.50;65.30;;;;;;5064410;28;20296;-48
2023/05/01 13:17:11;;;;;;;7.80;4.80;;;21.50;65.70;;;;;;5083954;28;20220;-44
2023/05/01 13:19:44;;;;;;;6.63;4.17;;;21.50;64.10;;;;;;5080645;28;20565;-46
2023/05/01 13:22:37;;;;;;;8.23;5.10;;;21.50;64.10;;;;;;5090549;28;20189;-46
2023/05/01 13:25:22;;;;;;;8.20;4.80;;;21.60;63.50;;;;;;5090798;28;20208;-46